Time;durP1;ratioP1;P1;durP2;ratioP2;P2;SDS_P1;SDS_P2;PMS_P1;PMS_P2;Temp;Humidity;BMP_temperature;BMP_pressure;BME280_temperature;BME280_humidity;BME280_pressure;Samples;Min_cycle;Max_cycle;Signal;HPM_P1;HPM_P2
2021/07/29 00:01:46;;;;;;;2.95;2.05;;;;;;;20.26;52.92;99136.06;6073437;23;20089;-85
2021/07/29 00:04:14;;;;;;;3.72;1.95;;;;;;;20.23;52.88;99124.88;6073322;23;20038;-85
2021/07/29 00:06:41;;;;;;;3.67;2.20;;;;;;;20.21;52.96;99132.22;6073338;23;20034;-84
2021/07/29 00:09:09;;;;;;;4.68;2.28;;;;;;;20.17;52.92;99137.91;6073717;23;20470;-85
2021/07/29 00:11:36;;;;;;;3.75;2.17;;;;;;;20.16;53.28;99130.06;6073495;23;20061;-85
2021/07/29 00:14:03;;;;;;;4.32;2.33;;;;;;;20.13;53.32;99131.22;6073169;23;20060;-85
2021/07/29 00:16:33;;;;;;;4.00;2.08;;;;;;;20.11;53.13;99130.53;6074060;23;20390;-85
2021/07/29 00:21:31;;;;;;;5.93;2.08;;;;;;;20.04;53.44;99127.69;6098803;23;20485;-79
2021/07/29 00:24:01;;;;;;;4.03;2.22;;;;;;;20.01;53.65;99129.88;6072842;23;20053;-80
2021/07/29 00:26:28;;;;;;;2.25;2.05;;;;;;;19.99;53.60;99123.84;6072829;23;20026;-79
2021/07/29 00:28:57;;;;;;;3.95;2.35;;;;;;;19.95;53.77;99119.81;6073238;23;20057;-80
2021/07/29 00:31:34;;;;;;;3.70;2.05;;;;;;;19.86;53.72;99114.47;6072935;23;20102;-79
2021/07/29 00:34:04;;;;;;;4.32;2.30;;;;;;;19.84;54.05;99113.78;6073082;23;20454;-79
2021/07/29 00:36:34;;;;;;;4.35;2.08;;;;;;;19.80;54.10;99125.78;6072980;23;20062;-79
2021/07/29 00:39:02;;;;;;;2.88;1.90;;;;;;;19.75;53.86;99122.78;6073240;23;20362;-79
2021/07/29 00:41:29;;;;;;;3.97;2.38;;;;;;;19.71;54.21;99116.09;6072848;23;20408;-79
2021/07/29 00:44:13;;;;;;;2.95;2.45;;;;;;;19.60;54.64;99126.09;6072660;23;20030;-79
2021/07/29 00:46:40;;;;;;;4.65;2.38;;;;;;;19.60;54.64;99118.06;6073077;23;20507;-79
2021/07/29 00:49:09;;;;;;;4.80;2.35;;;;;;;19.55;54.58;99123.03;6072924;23;20045;-79
2021/07/29 00:51:36;;;;;;;4.00;2.38;;;;;;;19.51;54.88;99119.88;6096683;23;20101;-79
2021/07/29 00:54:06;;;;;;;4.40;2.35;;;;;;;19.45;55.28;99114.34;6072213;23;20101;-79
2021/07/29 00:56:34;;;;;;;4.78;2.35;;;;;;;19.43;55.08;99108.34;6096389;23;20093;-79
2021/07/29 00:59:03;;;;;;;2.95;2.30;;;;;;;19.37;55.58;99115.97;6072220;23;20034;-79
2021/07/29 01:01:29;;;;;;;6.28;2.80;;;;;;;19.35;55.34;99107.31;6073112;23;20402;-79
2021/07/29 01:04:06;;;;;;;3.42;2.03;;;;;;;19.29;55.70;99107.97;6072378;23;20109;-79
2021/07/29 01:06:32;;;;;;;6.55;2.70;;;;;;;19.30;55.51;99106.09;6072363;23;20091;-80
2021/07/29 01:09:09;;;;;;;3.97;2.33;;;;;;;19.23;55.88;99098.75;6096687;23;20130;-79
2021/07/29 01:11:37;;;;;;;3.42;2.15;;;;;;;19.26;55.83;99092.25;6072365;23;20069;-79
2021/07/29 01:14:07;;;;;;;3.50;2.13;;;;;;;19.21;56.28;99100.72;6072101;23;20018;-79
2021/07/29 01:16:34;;;;;;;5.30;2.30;;;;;;;19.21;56.06;99105.25;6072876;23;20098;-79
2021/07/29 01:19:03;;;;;;;4.32;2.50;;;;;;;19.19;56.28;99101.88;6072725;23;20053;-79
2021/07/29 01:21:50;;;;;;;3.30;2.47;;;;;;;19.17;56.46;99090.56;6076519;23;20029;-79
2021/07/29 01:24:16;;;;;;;3.50;2.38;;;;;;;19.13;56.45;99088.19;6096173;23;20064;-80
2021/07/29 01:26:43;;;;;;;3.92;2.53;;;;;;;19.11;56.47;99090.19;6072601;23;20037;-79
2021/07/29 01:29:10;;;;;;;3.83;2.70;;;;;;;19.08;56.82;99084.34;6096081;23;20550;-79
2021/07/29 01:31:37;;;;;;;7.78;2.97;;;;;;;19.04;56.76;99077.63;6072627;23;20057;-79
2021/07/29 01:34:05;;;;;;;4.68;2.58;;;;;;;18.99;56.69;99073.59;6072588;23;20425;-79
2021/07/29 01:36:35;;;;;;;5.22;3.13;;;;;;;18.94;57.36;99075.06;6072579;23;20101;-79
2021/07/29 01:39:03;;;;;;;7.57;3.20;;;;;;;18.93;57.07;99086.72;6072647;23;20069;-79
2021/07/29 01:41:30;;;;;;;4.70;2.60;;;;;;;18.90;57.05;99071.88;6072213;23;20064;-80
2021/07/29 01:43:58;;;;;;;5.45;3.10;;;;;;;18.85;57.70;99080.38;6072550;23;20457;-79
2021/07/29 01:46:25;;;;;;;5.10;2.92;;;;;;;18.86;57.32;99081.19;6072186;23;20045;-79
2021/07/29 01:48:53;;;;;;;7.32;2.72;;;;;;;18.84;57.33;99086.69;6072401;23;20034;-79
2021/07/29 01:51:20;;;;;;;5.40;2.50;;;;;;;18.84;57.29;99084.00;6072946;23;20462;-79
2021/07/29 01:53:48;;;;;;;3.60;2.70;;;;;;;18.83;57.38;99082.34;6072171;23;20022;-79
2021/07/29 01:56:14;;;;;;;4.85;2.72;;;;;;;18.83;57.52;99068.16;6072101;23;20018;-79
2021/07/29 01:58:47;;;;;;;6.88;2.80;;;;;;;18.81;57.87;99067.50;6072317;23;20109;-79
2021/07/29 02:01:23;;;;;;;9.23;3.13;;;;;;;18.82;57.88;99070.03;6072351;23;20105;-79
2021/07/29 02:03:50;;;;;;;5.22;2.85;;;;;;;18.85;58.08;99066.19;6072070;23;20030;-79
2021/07/29 02:06:20;;;;;;;4.88;2.83;;;;;;;18.85;58.14;99066.19;6072280;23;20057;-79
2021/07/29 02:08:46;;;;;;;3.90;2.63;;;;;;;18.87;58.25;99070.38;6071848;23;20085;-79
2021/07/29 02:11:13;;;;;;;4.88;3.10;;;;;;;18.88;58.10;99084.56;6072212;23;20029;-79
2021/07/29 02:13:40;;;;;;;6.25;3.20;;;;;;;18.88;58.11;99072.03;6072388;23;20109;-79
2021/07/29 02:16:10;;;;;;;6.05;3.08;;;;;;;18.86;58.97;99075.88;6071700;23;20037;-79
2021/07/29 02:18:37;;;;;;;6.75;3.05;;;;;;;18.88;58.16;99081.88;6072122;23;20026;-79
2021/07/29 02:21:09;;;;;;;5.10;3.15;;;;;;;18.86;58.85;99087.38;6072560;23;20053;-79
2021/07/29 02:23:37;;;;;;;4.63;3.28;;;;;;;18.88;58.41;99090.72;6072313;23;20026;-79
2021/07/29 02:26:07;;;;;;;4.93;3.15;;;;;;;18.87;58.73;99089.03;6071962;23;20101;-79
2021/07/29 02:28:34;;;;;;;5.68;3.15;;;;;;;18.90;58.65;99093.22;6071970;23;20490;-79
2021/07/29 02:31:01;;;;;;;2.95;2.72;;;;;;;18.91;58.69;99091.41;6095714;23;20101;-79
2021/07/29 02:33:28;;;;;;;5.38;3.20;;;;;;;18.93;58.49;99089.41;6072250;23;20026;-79
2021/07/29 02:35:55;;;;;;;3.63;2.75;;;;;;;18.93;58.45;99082.25;6071603;23;20072;-79
2021/07/29 02:38:21;;;;;;;5.18;3.10;;;;;;;18.95;58.69;99092.75;6097023;23;20023;-79
2021/07/29 02:40:48;;;;;;;4.90;3.10;;;;;;;18.96;58.82;99091.75;6071491;23;20097;-79
2021/07/29 02:43:15;;;;;;;5.70;2.75;;;;;;;18.98;58.63;99097.75;6071222;23;20026;-80
2021/07/29 02:45:42;;;;;;;3.88;2.95;;;;;;;18.99;58.60;99092.25;6070914;23;20049;-80
2021/07/29 02:48:14;;;;;;;4.97;3.13;;;;;;;18.98;58.52;99090.59;6071884;23;20026;-81
2021/07/29 02:50:42;;;;;;;7.03;2.75;;;;;;;19.04;58.42;99093.63;6097041;23;20026;-81
2021/07/29 02:53:09;;;;;;;3.78;2.63;;;;;;;19.04;58.32;99083.78;6096103;23;20109;-80
2021/07/29 02:55:36;;;;;;;4.13;2.60;;;;;;;19.04;58.47;99094.47;6094449;23;20113;-80
2021/07/29 02:58:04;;;;;;;4.90;2.65;;;;;;;19.04;58.17;99094.47;6069707;23;20060;-80
2021/07/29 03:00:34;;;;;;;4.97;2.70;;;;;;;19.03;58.00;99087.47;6070564;23;20361;-80
2021/07/29 03:03:01;;;;;;;7.15;2.45;;;;;;;19.05;58.24;99100.63;6094687;23;20022;-81
2021/07/29 03:05:29;;;;;;;4.15;2.53;;;;;;;19.05;58.03;99109.50;6070985;23;20331;-80
2021/07/29 03:07:56;;;;;;;3.97;2.50;;;;;;;19.07;58.12;99099.53;6070441;23;20027;-80
2021/07/29 03:10:23;;;;;;;3.90;2.53;;;;;;;19.07;57.93;99096.84;6070741;23;20101;-80
2021/07/29 03:12:49;;;;;;;5.38;2.25;;;;;;;19.08;58.17;99103.00;6070592;23;20027;-80
2021/07/29 03:15:16;;;;;;;4.05;2.50;;;;;;;19.09;58.01;99102.00;6071064;23;20103;-80
2021/07/29 03:17:45;;;;;;;3.97;2.13;;;;;;;19.08;57.86;99095.00;6071304;23;20093;-81
2021/07/29 03:20:12;;;;;;;3.58;2.17;;;;;;;19.08;57.75;99101.19;6072408;23;20106;-85
2021/07/29 03:22:39;;;;;;;5.93;2.20;;;;;;;19.08;57.41;99101.19;6071890;23;20023;-84
2021/07/29 03:25:06;;;;;;;3.72;2.47;;;;;;;19.08;57.35;99101.19;6072110;23;20105;-85
2021/07/29 03:27:33;;;;;;;3.00;1.83;;;;;;;19.07;57.31;99109.34;6071346;23;20069;-80
2021/07/29 03:30:00;;;;;;;3.33;2.20;;;;;;;19.05;57.37;99104.16;6098651;23;20030;-88
2021/07/29 03:32:29;;;;;;;6.78;2.17;;;;;;;19.04;57.24;99107.81;6074114;23;20026;-85
2021/07/29 03:35:00;;;;;;;4.35;2.13;;;;;;;19.04;57.20;99101.63;6075638;23;20394;-85
2021/07/29 03:37:30;;;;;;;5.28;2.10;;;;;;;19.02;57.43;99112.44;6097847;23;20343;-89
2021/07/29 03:40:04;;;;;;;4.40;2.30;;;;;;;19.02;57.22;99118.63;6098063;23;20022;-89
2021/07/29 03:42:32;;;;;;;7.20;2.13;;;;;;;19.03;57.16;99116.81;6084595;23;20030;-89
2021/07/29 03:45:10;;;;;;;3.53;2.10;;;;;;;18.98;57.16;99122.59;6073792;23;20468;-89
2021/07/29 03:47:36;;;;;;;3.15;2.00;;;;;;;19.04;57.02;99114.97;6097173;23;20025;-89
2021/07/29 03:50:20;;;;;;;4.22;2.03;;;;;;;18.99;56.70;99116.28;6097302;23;20030;-89
2021/07/29 03:52:47;;;;;;;5.03;2.55;;;;;;;19.04;57.05;99126.47;6097300;23;20036;-89
2021/07/29 03:55:50;;;;;;;4.07;2.35;;;;;;;18.99;56.72;99121.59;6073589;23;20418;-89
2021/07/29 03:58:17;;;;;;;4.53;2.13;;;;;;;19.03;56.96;99111.47;6073827;23;20088;-89
2021/07/29 04:00:55;;;;;;;3.05;2.00;;;;;;;18.98;56.57;99121.75;6073486;23;20015;-89
2021/07/29 04:03:35;;;;;;;7.30;2.13;;;;;;;18.97;56.54;99120.09;6073220;23;20022;-89
2021/07/29 04:06:03;;;;;;;7.10;2.30;;;;;;;19.00;56.79;99119.78;6073335;23;20101;-89
2021/07/29 04:08:30;;;;;;;6.20;1.83;;;;;;;18.98;56.80;99132.41;6072959;23;20101;-89
2021/07/29 04:10:59;;;;;;;5.03;2.03;;;;;;;18.98;56.66;99135.09;6073914;23;20427;-89
2021/07/29 04:13:38;;;;;;;6.18;1.88;;;;;;;18.93;56.66;99130.25;6073486;23;20097;-80
2021/07/29 04:16:05;;;;;;;4.93;2.30;;;;;;;18.99;57.09;99126.13;6072882;23;20453;-80
2021/07/29 04:18:36;;;;;;;7.80;2.13;;;;;;;18.99;56.87;99128.78;6072777;23;20458;-80
2021/07/29 04:21:03;;;;;;;4.22;1.90;;;;;;;19.00;56.83;99123.25;6073294;23;20058;-89
2021/07/29 04:23:31;;;;;;;3.78;1.85;;;;;;;19.01;56.61;99140.13;6072912;23;20023;-89
2021/07/29 04:25:58;;;;;;;7.53;2.03;;;;;;;19.02;56.73;99131.13;6073011;23;20097;-89
2021/07/29 04:28:24;;;;;;;3.88;1.75;;;;;;;19.03;56.55;99140.81;6073629;23;20085;-80
2021/07/29 04:30:52;;;;;;;5.43;1.98;;;;;;;19.02;56.67;99141.78;6072475;23;20118;-80
2021/07/29 04:33:19;;;;;;;5.47;2.35;;;;;;;19.03;57.02;99140.81;6072732;23;20027;-85
2021/07/29 04:35:45;;;;;;;4.60;2.20;;;;;;;19.03;56.82;99143.47;6073004;23;20109;-85
2021/07/29 04:38:12;;;;;;;4.63;2.10;;;;;;;19.03;56.66;99127.47;6073385;23;20093;-85
2021/07/29 04:44:11;;;;;;;2.97;2.10;;;;;;;18.99;56.60;99144.78;6098174;23;20062;-85
2021/07/29 04:46:40;;;;;;;7.07;2.10;;;;;;;18.98;56.79;99143.09;6072843;23;20097;-85
2021/07/29 04:49:53;;;;;;;5.25;2.13;;;;;;;18.90;56.88;99138.56;6072823;23;20014;-85
2021/07/29 04:52:20;;;;;;;5.28;1.88;;;;;;;18.94;56.90;99136.41;6098134;23;20022;-85
2021/07/29 04:54:47;;;;;;;8.60;2.15;;;;;;;18.92;56.95;99135.72;6073194;23;20032;-85
2021/07/29 05:00:54;;;;;;;6.07;2.15;;;;;;;18.92;57.00;99131.25;6098157;23;20093;-85
2021/07/29 05:03:47;;;;;;;3.55;2.00;;;;;;;18.87;57.02;99130.84;6098263;23;20097;-85
2021/07/29 05:06:14;;;;;;;5.60;1.83;;;;;;;18.92;57.33;99136.59;6072790;23;20044;-85
2021/07/29 05:08:48;;;;;;;3.92;2.42;;;;;;;18.89;57.40;99144.88;6072682;23;20097;-85
2021/07/29 05:11:15;;;;;;;10.63;1.98;;;;;;;18.93;57.26;99140.06;6072719;23;20027;-85
2021/07/29 05:13:42;;;;;;;5.50;2.15;;;;;;;18.93;57.32;99153.41;6072771;23;20101;-86
2021/07/29 05:16:09;;;;;;;8.50;2.45;;;;;;;18.92;57.30;99143.72;6072882;23;20049;-86
2021/07/29 05:18:45;;;;;;;5.88;2.47;;;;;;;18.88;56.82;99146.72;6073031;23;20502;-85
2021/07/29 05:21:12;;;;;;;6.55;2.20;;;;;;;18.92;57.07;99144.59;6073579;23;20341;-85
2021/07/29 05:23:53;;;;;;;4.97;2.10;;;;;;;18.86;56.82;99148.72;6073320;23;20105;-85
2021/07/29 05:26:19;;;;;;;5.60;2.35;;;;;;;18.90;57.17;99146.56;6072846;23;20109;-85
2021/07/29 05:28:47;;;;;;;6.05;2.08;;;;;;;18.90;57.30;99141.22;6072658;23;20077;-79
2021/07/29 05:31:16;;;;;;;7.78;2.47;;;;;;;18.87;57.31;99142.38;6072355;23;20022;-89
2021/07/29 05:33:42;;;;;;;5.85;2.25;;;;;;;18.89;57.37;99139.56;6096108;23;20031;-89
2021/07/29 05:36:10;;;;;;;5.03;1.98;;;;;;;18.89;57.24;99147.56;6096535;23;20089;-89
2021/07/29 05:38:37;;;;;;;6.68;2.25;;;;;;;18.91;57.27;99144.72;6072648;23;20030;-86
2021/07/29 05:41:06;;;;;;;8.35;2.38;;;;;;;18.91;57.37;99153.56;6073379;23;20327;-84
2021/07/29 05:43:39;;;;;;;4.68;2.35;;;;;;;18.91;57.57;99150.88;6072452;23;20066;-81
2021/07/29 05:46:13;;;;;;;6.65;2.38;;;;;;;18.92;57.57;99151.72;6071656;23;20076;-81
2021/07/29 05:48:40;;;;;;;7.47;2.10;;;;;;;18.97;57.70;99160.94;6071602;23;20098;-82
2021/07/29 05:51:08;;;;;;;5.15;2.40;;;;;;;18.99;57.56;99155.44;6095486;23;20110;-80
2021/07/29 05:53:34;;;;;;;4.90;2.08;;;;;;;19.02;57.74;99163.13;6071900;23;20018;-80
2021/07/29 05:56:01;;;;;;;6.85;2.55;;;;;;;19.04;57.62;99157.63;6095362;23;20105;-80
2021/07/29 05:58:28;;;;;;;6.13;2.22;;;;;;;19.07;57.62;99162.69;6071799;23;20349;-79
2021/07/29 06:00:56;;;;;;;6.38;2.65;;;;;;;19.09;57.94;99158.88;6071902;23;20105;-86
2021/07/29 06:03:23;;;;;;;6.70;2.50;;;;;;;19.14;57.69;99153.88;6072047;23;20070;-86
2021/07/29 06:05:55;;;;;;;8.65;2.70;;;;;;;19.19;57.40;99160.59;6071645;23;20025;-83
2021/07/29 06:08:24;;;;;;;8.02;2.47;;;;;;;19.22;57.57;99153.09;6071863;23;20026;-80
2021/07/29 06:10:51;;;;;;;8.40;2.28;;;;;;;19.29;57.73;99158.66;6071882;23;20408;-81
2021/07/29 06:13:19;;;;;;;6.65;2.60;;;;;;;19.33;57.64;99159.97;6096495;23;20022;-81
2021/07/29 06:15:45;;;;;;;4.78;2.45;;;;;;;19.40;57.56;99154.88;6072199;23;20085;-86
2021/07/29 06:18:13;;;;;;;7.97;2.22;;;;;;;19.47;57.57;99157.75;6071597;23;20034;-85
2021/07/29 06:20:41;;;;;;;6.95;2.45;;;;;;;19.53;57.09;99162.41;6072608;23;20026;-86
2021/07/29 06:23:09;;;;;;;9.00;2.42;;;;;;;19.57;56.85;99161.09;6071938;23;20105;-86
2021/07/29 06:25:39;;;;;;;7.68;2.58;;;;;;;19.59;56.27;99156.41;6072270;23;20341;-80
2021/07/29 06:28:12;;;;;;;7.88;2.72;;;;;;;19.60;56.18;99142.09;6071937;23;20026;-80
2021/07/29 06:30:42;;;;;;;7.78;2.45;;;;;;;19.60;55.82;99158.13;6097631;23;20473;-86
2021/07/29 06:33:09;;;;;;;4.95;2.20;;;;;;;19.62;56.30;99156.09;6097595;23;20058;-86
2021/07/29 06:35:36;;;;;;;7.65;2.72;;;;;;;19.61;56.11;99167.78;6071292;23;20097;-81
2021/07/29 06:38:02;;;;;;;7.43;2.33;;;;;;;19.60;55.48;99157.28;6071796;23;20022;-81
2021/07/29 06:40:31;;;;;;;16.17;2.92;;;;;;;19.57;55.12;99162.91;6095497;23;20025;-81
2021/07/29 06:42:58;;;;;;;7.72;2.78;;;;;;;19.56;55.30;99167.44;6071669;23;20026;-82
2021/07/29 06:45:27;;;;;;;15.23;2.95;;;;;;;19.51;55.10;99167.91;6096821;23;20062;-82
2021/07/29 06:47:54;;;;;;;10.57;3.10;;;;;;;19.51;55.68;99175.91;6072209;23;20060;-82
2021/07/29 06:50:21;;;;;;;8.45;2.45;;;;;;;19.50;55.33;99173.41;6097306;23;20109;-85
2021/07/29 06:52:48;;;;;;;11.57;2.60;;;;;;;19.49;55.21;99167.25;6071783;23;20022;-87
2021/07/29 06:55:15;;;;;;;6.85;2.65;;;;;;;19.51;55.31;99185.78;6071786;23;20105;-82
2021/07/29 06:57:47;;;;;;;6.53;2.25;;;;;;;19.51;55.00;99185.78;6097603;23;20046;-83
2021/07/29 07:00:14;;;;;;;8.50;2.35;;;;;;;19.55;54.98;99191.63;6071941;23;20027;-80
2021/07/29 07:02:41;;;;;;;9.75;2.53;;;;;;;19.57;55.01;99182.47;6096538;23;20027;-79
2021/07/29 07:05:08;;;;;;;9.80;2.65;;;;;;;19.58;54.91;99189.47;6073381;23;20026;-79
2021/07/29 07:07:36;;;;;;;5.22;2.30;;;;;;;19.61;54.90;99194.50;6073590;23;20026;-79
2021/07/29 07:10:03;;;;;;;6.80;2.45;;;;;;;19.62;55.24;99177.47;6073744;23;20393;-80
2021/07/29 07:12:29;;;;;;;4.85;2.53;;;;;;;19.66;55.09;99183.31;6074015;23;20022;-82
2021/07/29 07:15:33;;;;;;;6.75;2.20;;;;;;;19.65;54.65;99192.31;6099142;23;20112;-82
2021/07/29 07:18:00;;;;;;;6.15;2.20;;;;;;;19.71;54.84;99181.03;6073972;23;20023;-82
2021/07/29 07:21:09;;;;;;;6.50;2.20;;;;;;;19.70;54.73;99179.31;6099164;23;20023;-83
2021/07/29 07:23:38;;;;;;;6.28;2.17;;;;;;;19.79;55.64;99186.38;6098185;23;20101;-83
2021/07/29 07:26:21;;;;;;;6.65;2.08;;;;;;;19.81;55.23;99186.19;6074137;23;20054;-80
2021/07/29 07:28:49;;;;;;;10.77;2.80;;;;;;;19.93;55.54;99195.59;6098283;23;20057;-79
2021/07/29 07:31:45;;;;;;;7.15;2.08;;;;;;;19.96;54.18;99197.09;6073386;23;20106;-83
2021/07/29 07:34:12;;;;;;;7.70;2.17;;;;;;;20.07;55.10;99185.31;6074182;23;20029;-82
2021/07/29 07:36:41;;;;;;;7.03;2.20;;;;;;;20.15;54.50;99190.66;6049758;23;20030;-80
2021/07/29 07:39:08;;;;;;;6.80;2.17;;;;;;;20.23;55.07;99199.72;6073537;23;20093;-85
2021/07/29 07:41:36;;;;;;;6.95;2.30;;;;;;;20.30;54.39;99200.72;6073153;23;20068;-81
2021/07/29 07:44:03;;;;;;;9.82;2.20;;;;;;;20.39;54.21;99210.44;6098098;23;20126;-82
2021/07/29 07:46:46;;;;;;;6.28;2.10;;;;;;;20.38;53.15;99205.25;6073234;23;20394;-85
2021/07/29 07:49:13;;;;;;;9.38;2.58;;;;;;;20.47;53.58;99206.06;6098261;23;20453;-86
2021/07/29 07:51:42;;;;;;;6.85;1.70;;;;;;;20.47;53.33;99219.44;6073393;23;20404;-80
2021/07/29 07:54:09;;;;;;;6.97;2.17;;;;;;;20.47;52.61;99230.97;6097056;23;20022;-80
2021/07/29 07:56:43;;;;;;;6.70;2.10;;;;;;;20.46;52.27;99212.44;6073323;23;20019;-80
2021/07/29 07:59:11;;;;;;;7.80;2.55;;;;;;;20.49;53.02;99212.94;6073609;23;20064;-81
2021/07/29 08:01:40;;;;;;;6.60;2.05;;;;;;;20.51;52.96;99210.09;6073404;23;20107;-80
2021/07/29 08:04:08;;;;;;;6.82;1.92;;;;;;;20.54;53.39;99218.63;6073685;23;20346;-80
2021/07/29 08:06:56;;;;;;;7.18;2.05;;;;;;;20.54;52.60;99207.09;6073217;23;20036;-80
2021/07/29 08:09:23;;;;;;;8.65;1.67;;;;;;;20.62;52.95;99204.44;6072889;23;20018;-80
2021/07/29 08:11:59;;;;;;;4.53;1.90;;;;;;;20.61;53.03;99202.75;6073313;23;20109;-80
2021/07/29 08:14:26;;;;;;;9.98;2.17;;;;;;;20.68;52.60;99197.56;6072619;23;20026;-80
2021/07/29 08:17:05;;;;;;;5.00;1.65;;;;;;;20.67;51.38;99206.63;6073105;23;20089;-80
2021/07/29 08:19:32;;;;;;;4.55;1.70;;;;;;;20.73;51.96;99192.56;6073171;23;20101;-80
2021/07/29 08:22:00;;;;;;;6.43;1.95;;;;;;;20.73;51.70;99195.22;6072864;23;20097;-80
2021/07/29 08:24:26;;;;;;;5.72;1.50;;;;;;;20.78;52.15;99205.44;6072817;23;20022;-80
2021/07/29 08:26:57;;;;;;;5.85;1.70;;;;;;;20.79;51.33;99199.09;6073340;23;20109;-80
2021/07/29 08:29:23;;;;;;;7.03;1.90;;;;;;;20.83;51.59;99208.44;6072869;23;20030;-80
2021/07/29 08:31:52;;;;;;;4.57;1.60;;;;;;;20.85;51.71;99198.41;6072537;23;20408;-80
2021/07/29 08:34:19;;;;;;;8.23;1.80;;;;;;;20.88;51.43;99197.25;6096303;23;20037;-80
2021/07/29 08:36:46;;;;;;;5.75;1.55;;;;;;;20.90;51.71;99196.06;6072619;23;20093;-80
2021/07/29 08:39:12;;;;;;;5.97;1.83;;;;;;;20.94;52.01;99210.78;6073066;23;20033;-80
2021/07/29 08:41:52;;;;;;;6.90;1.92;;;;;;;20.96;50.29;99197.25;6097042;23;20457;-83
2021/07/29 08:44:18;;;;;;;7.28;1.90;;;;;;;21.05;51.55;99200.75;6096875;23;20022;-83
2021/07/29 08:46:57;;;;;;;6.25;1.98;;;;;;;21.07;50.14;99212.97;6073090;23;20118;-83
2021/07/29 08:49:26;;;;;;;8.52;2.15;;;;;;;21.17;51.25;99204.75;6073093;23;20338;-82
2021/07/29 08:51:53;;;;;;;3.10;1.50;;;;;;;21.27;51.75;99206.41;6072049;23;20026;-82
2021/07/29 08:54:21;;;;;;;6.40;1.85;;;;;;;21.35;51.30;99207.19;6072231;23;20065;-81
2021/07/29 08:56:48;;;;;;;7.38;2.00;;;;;;;21.45;51.34;99201.66;6071754;23;20102;-82
2021/07/29 08:59:15;;;;;;;7.63;2.30;;;;;;;21.55;50.77;99205.97;6095750;23;20109;-81
2021/07/29 09:01:48;;;;;;;13.40;1.95;;;;;;;21.61;50.16;99198.06;6072045;23;20028;-82
2021/07/29 09:04:16;;;;;;;9.82;1.90;;;;;;;21.67;49.71;99203.75;6072286;23;20080;-82
2021/07/29 09:07:02;;;;;;;7.05;1.67;;;;;;;21.68;49.21;99206.25;6072138;23;20029;-82
2021/07/29 09:09:38;;;;;;;6.90;1.60;;;;;;;21.75;48.69;99209.09;6071951;23;20413;-80
2021/07/29 09:12:19;;;;;;;5.40;1.95;;;;;;;21.79;48.93;99225.69;6072353;23;20102;-82
2021/07/29 09:14:47;;;;;;;6.22;2.22;;;;;;;21.87;49.75;99212.25;6073020;23;20461;-82
2021/07/29 09:17:42;;;;;;;8.20;1.70;;;;;;;21.91;48.58;99218.09;6072539;23;20041;-82
2021/07/29 09:20:16;;;;;;;4.32;1.58;;;;;;;21.98;47.96;99224.41;6072995;23;20450;-82
2021/07/29 09:23:33;;;;;;;6.95;1.73;;;;;;;22.03;47.94;99215.84;6058702;23;20362;-82
2021/07/29 09:26:01;;;;;;;6.47;1.73;;;;;;;22.11;48.54;99218.47;6095804;23;20026;-82
2021/07/29 09:28:39;;;;;;;7.03;1.90;;;;;;;22.09;47.81;99209.78;6072166;23;20093;-82
2021/07/29 09:31:23;;;;;;;5.90;1.70;;;;;;;22.06;47.33;99218.19;6072340;23;20026;-82
2021/07/29 09:33:59;;;;;;;9.15;1.33;;;;;;;22.03;47.48;99224.72;6072366;23;20074;-82
2021/07/29 09:36:28;;;;;;;8.15;2.15;;;;;;;22.02;48.13;99231.09;6072365;23;20105;-82
2021/07/29 09:39:22;;;;;;;10.10;1.60;;;;;;;21.90;48.13;99240.53;6072150;23;20048;-86
2021/07/29 09:41:50;;;;;;;5.97;1.67;;;;;;;21.90;48.22;99237.84;6071723;23;20093;-87
2021/07/29 09:44:44;;;;;;;8.18;2.47;;;;;;;21.78;47.53;99245.41;6072491;23;20080;-82
2021/07/29 09:47:11;;;;;;;11.68;1.50;;;;;;;21.77;48.36;99230.34;6072893;23;20405;-82
2021/07/29 09:49:40;;;;;;;6.57;1.80;;;;;;;21.69;48.81;99239.25;6072170;23;20401;-81
2021/07/29 09:52:07;;;;;;;7.80;2.08;;;;;;;21.70;49.36;99231.03;6071839;23;20430;-81
2021/07/29 09:54:37;;;;;;;18.25;2.35;;;;;;;21.74;49.03;99240.44;6072256;23;20371;-87
2021/07/29 09:57:06;;;;;;;9.20;1.85;;;;;;;21.85;48.97;99225.81;6072632;23;20358;-85
2021/07/29 09:59:36;;;;;;;11.80;2.20;;;;;;;21.93;47.86;99234.81;6072096;23;20025;-85
2021/07/29 10:02:04;;;;;;;7.43;1.80;;;;;;;22.00;48.18;99235.78;6096877;23;20022;-86
2021/07/29 10:04:52;;;;;;;;;;;;;;;22.06;48.49;99234.25;6073534;23;20018;-82
2021/07/29 10:07:25;;;;;;;7.30;1.50;;;;;;;22.21;45.88;99243.19;6071980;23;19917;-82
2021/07/29 10:09:54;;;;;;;6.43;1.65;;;;;;;22.32;46.79;99231.22;6072019;23;20033;-82
2021/07/29 10:12:27;;;;;;;5.07;2.03;;;;;;;22.39;46.82;99234.06;6071945;23;20137;-82
2021/07/29 10:14:55;;;;;;;3.85;1.73;;;;;;;22.50;46.40;99238.19;6072174;23;20421;-82
2021/07/29 10:17:35;;;;;;;7.70;1.80;;;;;;;22.56;46.78;99229.44;6072362;23;20109;-82
2021/07/29 10:20:11;;;;;;;11.30;1.92;;;;;;;22.68;45.92;99232.53;6095389;23;20102;-82
2021/07/29 10:22:40;;;;;;;12.52;2.35;;;;;;;22.81;45.93;99236.47;6095726;23;20466;-82
2021/07/29 10:25:07;;;;;;;6.47;1.83;;;;;;;22.91;45.68;99243.25;6095579;23;20109;-86
2021/07/29 10:27:36;;;;;;;5.38;1.90;;;;;;;22.99;46.48;99242.31;6072155;23;20466;-87
2021/07/29 10:30:21;;;;;;;7.25;1.60;;;;;;;23.07;46.16;99230.69;6071733;23;20085;-86
2021/07/29 10:32:52;;;;;;;7.95;2.00;;;;;;;23.23;45.83;99232.38;6095782;23;20514;-87
2021/07/29 10:35:47;;;;;;;6.20;2.17;;;;;;;23.33;46.01;99239.34;6071998;23;20413;-86
2021/07/29 10:38:40;;;;;;;7.72;2.00;;;;;;;23.47;45.84;99235.84;6058681;23;20097;-85
2021/07/29 10:41:10;;;;;;;5.40;1.60;;;;;;;23.59;45.48;99240.75;6096511;23;20025;-86
2021/07/29 10:43:44;;;;;;;7.30;2.25;;;;;;;23.64;44.33;99239.19;6095387;23;20026;-85
2021/07/29 10:46:14;;;;;;;4.60;1.73;;;;;;;23.73;45.37;99255.22;6071256;23;20069;-85
2021/07/29 10:48:46;;;;;;;3.05;1.30;;;;;;;23.79;45.78;99243.72;6095406;23;20062;-88
2021/07/29 10:51:18;;;;;;;7.50;1.80;;;;;;;23.88;46.30;99245.28;6072093;23;20061;-87
2021/07/29 10:53:47;;;;;;;4.07;1.67;;;;;;;24.02;45.25;99240.91;6071916;23;20501;-87
2021/07/29 10:56:23;;;;;;;5.82;1.60;;;;;;;24.22;44.07;99234.94;6072054;23;20068;-86
2021/07/29 10:58:53;;;;;;;6.18;1.73;;;;;;;24.48;44.61;99238.94;6070857;23;20393;-87
2021/07/29 11:01:21;;;;;;;7.97;2.00;;;;;;;24.65;43.52;99238.69;6097024;23;20484;-87
2021/07/29 11:04:00;;;;;;;7.72;2.00;;;;;;;24.69;43.43;99221.13;6071993;23;20081;-82
2021/07/29 11:09:16;;;;;;;4.55;1.60;;;;;;;24.76;42.46;99229.25;6096785;23;20027;-85
2021/07/29 11:11:44;;;;;;;6.45;1.73;;;;;;;24.94;42.46;99228.81;6071315;23;20094;-85
2021/07/29 11:14:11;;;;;;;7.10;2.17;;;;;;;25.19;43.47;99223.00;6071066;23;20102;-85
2021/07/29 11:16:39;;;;;;;8.50;2.10;;;;;;;25.51;42.67;99215.31;6095578;23;20101;-84
2021/07/29 11:19:08;;;;;;;4.90;1.75;;;;;;;25.86;42.60;99220.69;6071522;23;20030;-85
2021/07/29 11:21:39;;;;;;;6.55;1.90;;;;;;;26.20;41.62;99228.88;6071807;23;20097;-82
2021/07/29 11:24:05;;;;;;;7.50;2.10;;;;;;;26.45;40.68;99228.34;6096675;23;20097;-82
2021/07/29 11:26:44;;;;;;;3.78;1.58;;;;;;;26.52;39.02;99231.06;6072006;23;20027;-85
2021/07/29 11:29:11;;;;;;;7.70;1.73;;;;;;;26.61;40.40;99226.31;6071236;23;20036;-82
2021/07/29 11:31:41;;;;;;;11.63;1.90;;;;;;;26.70;39.85;99235.00;6071361;23;20521;-81
2021/07/29 11:34:08;;;;;;;4.57;1.52;;;;;;;26.95;40.80;99229.03;6071420;23;20030;-82
2021/07/29 11:36:50;;;;;;;4.13;1.58;;;;;;;27.25;40.04;99224.00;6071841;23;20111;-83
2021/07/29 11:39:17;;;;;;;17.65;2.22;;;;;;;27.58;38.89;99231.19;6071755;23;20022;-82
2021/07/29 11:41:59;;;;;;;8.40;2.00;;;;;;;27.79;37.73;99239.28;6072219;23;20022;-82
2021/07/29 11:44:51;;;;;;;6.05;1.65;;;;;;;27.89;37.46;99250.47;6071597;23;20085;-82
2021/07/29 11:51:17;;;;;;;6.28;1.88;;;;;;;27.84;35.47;99243.00;5982260;24;20106;-82
2021/07/29 11:53:45;;;;;;;9.25;1.60;;;;;;;27.83;37.43;99243.22;5958976;24;20107;-82
2021/07/29 11:56:13;;;;;;;4.65;1.90;;;;;;;27.88;38.37;99253.41;5959189;24;20099;-82
2021/07/29 11:58:41;;;;;;;4.35;1.90;;;;;;;28.06;38.84;99244.56;5959523;24;20491;-82
2021/07/29 12:01:19;;;;;;;5.43;1.73;;;;;;;28.29;35.42;99249.47;5959055;24;20090;-82
2021/07/29 12:03:48;;;;;;;5.18;1.83;;;;;;;28.51;35.28;99238.28;5959120;24;20028;-82
2021/07/29 12:06:25;;;;;;;8.75;1.92;;;;;;;28.59;35.29;99238.03;5959105;24;20028;-82
2021/07/29 12:09:26;;;;;;;4.38;1.60;;;;;;;28.62;35.62;99247.59;5959149;24;20024;-82